Nearby METAR Reports

 

EGQL - Leuchars Raf, United Kingdom
Distance from station: SW 11mi, 17km
Updated: 20/09/2018 08:50
Few Clouds
Few Clouds
 Wind from SW
Wind: SW 21 mph , 33 km/h
Temperature: 11°C
Dew Point: 7°C
Humidity: 77%
Barometer: 1002 hPa
Clouds: Few Clouds
Visibility: 6 miles , 10 km
Cloud details: Few Clouds 610 m
2018/09/20 07:50 EGQL 200750Z 23018KT 9999 FEW020 11/07 Q1002 BLU
EGPN - Dundee/Riverside, United Kingdom
Distance from station: WSW 13mi, 20km
Updated: 20/09/2018 09:50
Nearby showers, Partly cloudy
Nearby showers, Partly cloudy
 Wind from WSW
Wind: WSW 26 mph , 43 km/h
Temperature: 12°C
Dew Point: 8°C
Humidity: 77%
Barometer: 1002 hPa
Summary: Nearby Showers
Clouds: Partly cloudy
Visibility: 6 miles , 10 km
Cloud details: Few Clouds 671 m
Partly cloudy 1158 m
2018/09/20 08:50 EGPN 200850Z 25023KT 9999 VCSH FEW022 SCT038 12/08 Q1002
 
EGPH - Edinburgh Airpor, United Kingdom
Distance from station: SSW 46mi, 74km
Updated: 20/09/2018 09:50
Few Clouds
Few Clouds
 Wind from SW
Wind: SW 17 mph , 28 km/h
Temperature: 12°C
Dew Point: 7°C
Humidity: 72%
Barometer: 1004 hPa
Clouds: Few Clouds
Visibility: 6 miles , 10 km
Cloud details: Few Clouds 701 m
2018/09/20 08:50 EGPH 200850Z 22015KT 9999 FEW023 12/07 Q1004
EGPD - Aberdeen/Dyce, United Kingdom
Distance from station: NNE 51mi, 82km
Updated: 20/09/2018 09:50
Clear
Clear
 Wind from SW
Wind: SW 24 mph , 39 km/h, Gust: 36 mph , 57 km/h
Temperature: 12°C
Dew Point: 4°C
Humidity: 58%
Barometer: 1000 hPa
Clouds: Clear
Visibility: 6 miles , 10 km
2018/09/20 08:50 EGPD 200850Z AUTO 22021G31KT 9999 NCD 12/04 Q1000